Time;durP1;ratioP1;P1;durP2;ratioP2;P2;SDS_P1;SDS_P2;PMS_P1;PMS_P2;Temp;Humidity;BMP_temperature;BMP_pressure;BME280_temperature;BME280_humidity;BME280_pressure;Samples;Min_cycle;Max_cycle;Signal;HPM_P1;HPM_P2
2023/06/19 00:01:55;;;;;;;3.42;2.95;;;20.40;99.90;;;;;;5075871;28;20578;-61
2023/06/19 00:04:21;;;;;;;3.33;2.72;;;20.40;99.90;;;;;;5075703;28;20734;-61
2023/06/19 00:06:48;;;;;;;3.60;3.10;;;20.40;99.90;;;;;;5076231;28;20627;-61
2023/06/19 00:09:14;;;;;;;3.20;2.90;;;20.30;99.90;;;;;;5075748;28;20284;-62
2023/06/19 00:11:40;;;;;;;3.72;2.78;;;20.20;99.90;;;;;;5075729;28;20183;-61
2023/06/19 00:14:05;;;;;;;4.50;2.78;;;20.20;99.90;;;;;;5075632;28;20214;-61
2023/06/19 00:16:32;;;;;;;3.00;2.70;;;20.30;99.90;;;;;;5075683;28;20198;-61
2023/06/19 00:18:57;;;;;;;4.15;3.00;;;20.30;99.90;;;;;;5075516;28;20171;-61
2023/06/19 00:21:27;;;;;;;3.25;2.70;;;20.40;99.90;;;;;;5075710;28;20535;-61
2023/06/19 00:23:53;;;;;;;5.40;2.70;;;20.20;99.90;;;;;;5075336;28;20274;-61
2023/06/19 00:26:25;;;;;;;4.32;3.22;;;20.40;99.90;;;;;;5075499;28;20198;-61
2023/06/19 00:28:51;;;;;;;3.17;2.60;;;20.30;99.90;;;;;;5075301;28;20265;-61
2023/06/19 00:31:18;;;;;;;3.58;2.78;;;20.20;99.90;;;;;;5075321;28;20179;-61
2023/06/19 00:33:45;;;;;;;3.50;2.97;;;20.10;99.90;;;;;;5075068;28;20225;-61
2023/06/19 00:36:12;;;;;;;3.90;2.70;;;20.10;99.90;;;;;;5075311;28;20183;-61
2023/06/19 00:38:39;;;;;;;3.00;2.70;;;20.20;99.90;;;;;;5075502;28;20224;-61
2023/06/19 00:41:05;;;;;;;3.35;2.55;;;20.20;99.90;;;;;;5075174;28;20167;-61
2023/06/19 00:43:31;;;;;;;5.25;2.70;;;20.20;99.90;;;;;;5075015;28;20186;-61
2023/06/19 00:46:01;;;;;;;3.47;2.85;;;20.30;99.90;;;;;;5075005;28;20179;-61
2023/06/19 00:48:28;;;;;;;4.68;2.72;;;20.30;99.90;;;;;;5074794;28;20225;-61
2023/06/19 00:50:55;;;;;;;4.63;3.13;;;20.20;99.90;;;;;;5075115;28;20178;-61
2023/06/19 00:53:22;;;;;;;5.03;2.70;;;20.30;99.90;;;;;;5074770;28;20684;-61
2023/06/19 00:55:48;;;;;;;4.60;2.83;;;20.30;99.90;;;;;;5075156;28;20166;-61
2023/06/19 00:58:15;;;;;;;3.47;2.92;;;20.30;99.90;;;;;;5074746;28;20183;-61
2023/06/19 01:00:41;;;;;;;3.50;3.20;;;20.20;99.90;;;;;;5074581;28;20174;-61
2023/06/19 01:03:06;;;;;;;3.67;3.00;;;20.30;99.90;;;;;;5074858;28;20651;-61
2023/06/19 01:05:33;;;;;;;4.40;3.28;;;20.20;99.90;;;;;;5074748;28;20190;-61
2023/06/19 01:08:14;;;;;;;3.47;3.13;;;20.30;99.90;;;;;;5074649;28;20175;-61
2023/06/19 01:10:47;;;;;;;3.55;3.10;;;20.20;99.90;;;;;;5074562;28;20166;-61
2023/06/19 01:13:22;;;;;;;4.80;3.33;;;20.20;99.90;;;;;;5074432;28;20590;-61
2023/06/19 01:15:48;;;;;;;4.70;3.47;;;20.20;99.90;;;;;;5074549;28;20274;-61
2023/06/19 01:18:15;;;;;;;5.18;3.40;;;20.30;99.90;;;;;;5074543;28;20174;-61
2023/06/19 01:20:41;;;;;;;5.57;3.53;;;20.20;99.90;;;;;;5074400;28;20178;-61
2023/06/19 01:23:11;;;;;;;3.80;3.30;;;20.20;99.90;;;;;;5074292;28;20175;-61
2023/06/19 01:25:37;;;;;;;4.57;3.22;;;20.10;99.90;;;;;;5073050;28;20170;-61
2023/06/19 01:28:09;;;;;;;4.93;3.70;;;20.20;99.90;;;;;;5074480;28;20179;-61
2023/06/19 01:30:35;;;;;;;5.78;3.65;;;20.10;99.90;;;;;;5074316;28;20171;-61
2023/06/19 01:33:13;;;;;;;4.22;3.58;;;20.20;99.90;;;;;;5073628;28;20205;-61
2023/06/19 01:35:41;;;;;;;4.78;3.75;;;20.20;99.90;;;;;;5073649;28;20197;-61
2023/06/19 01:38:07;;;;;;;5.32;3.83;;;20.20;99.90;;;;;;5073882;28;20249;-61
2023/06/19 01:40:34;;;;;;;5.00;4.47;;;20.20;99.90;;;;;;5073894;28;20635;-61
2023/06/19 01:43:01;;;;;;;4.63;3.75;;;20.10;99.90;;;;;;5074015;28;20201;-61
2023/06/19 01:45:30;;;;;;;5.22;3.88;;;20.00;99.90;;;;;;5073842;28;20628;-61
2023/06/19 01:47:56;;;;;;;4.40;3.80;;;20.10;99.90;;;;;;5073696;28;20171;-60
2023/06/19 01:50:23;;;;;;;5.90;3.60;;;20.10;99.90;;;;;;5073808;28;20228;-61
2023/06/19 01:52:52;;;;;;;5.75;4.07;;;20.00;99.90;;;;;;5073572;28;20210;-61
2023/06/19 01:55:19;;;;;;;5.35;4.40;;;20.10;99.90;;;;;;5073764;28;20166;-61
2023/06/19 01:57:45;;;;;;;5.60;4.22;;;20.10;99.90;;;;;;5073808;28;20516;-61
2023/06/19 02:00:11;;;;;;;6.28;3.97;;;20.20;99.90;;;;;;5073720;28;20183;-61
2023/06/19 02:02:37;;;;;;;5.45;4.10;;;20.20;99.90;;;;;;5072608;28;20210;-61
2023/06/19 02:05:04;;;;;;;6.78;4.15;;;20.20;99.90;;;;;;5073551;28;20194;-61
2023/06/19 02:07:30;;;;;;;7.57;3.85;;;20.20;99.90;;;;;;5073366;28;20696;-60
2023/06/19 02:09:56;;;;;;;7.18;4.25;;;20.30;99.90;;;;;;5074285;28;20206;-61
2023/06/19 02:12:22;;;;;;;6.68;4.40;;;20.20;99.90;;;;;;5073527;28;20217;-61
2023/06/19 02:14:47;;;;;;;5.00;4.50;;;20.20;99.90;;;;;;5073412;28;20174;-61
2023/06/19 02:17:13;;;;;;;5.55;4.75;;;20.20;99.90;;;;;;5073446;28;20209;-61
2023/06/19 02:19:38;;;;;;;5.40;4.30;;;20.20;99.90;;;;;;5073411;28;20636;-60
2023/06/19 02:22:05;;;;;;;5.57;4.80;;;20.30;99.90;;;;;;5073180;28;20277;-61
2023/06/19 02:24:31;;;;;;;5.15;4.05;;;20.20;99.90;;;;;;5073419;28;20179;-61
2023/06/19 02:26:57;;;;;;;6.07;4.07;;;20.20;99.90;;;;;;5073334;28;20175;-61
2023/06/19 02:29:22;;;;;;;5.70;3.85;;;20.20;99.90;;;;;;5073236;28;20186;-61
2023/06/19 02:31:48;;;;;;;7.68;4.10;;;20.20;99.90;;;;;;5073537;28;20175;-61
2023/06/19 02:34:14;;;;;;;4.65;4.22;;;20.20;99.90;;;;;;5073108;28;20217;-61
2023/06/19 02:36:39;;;;;;;5.28;4.53;;;20.20;99.90;;;;;;5073062;28;20178;-61
2023/06/19 02:39:08;;;;;;;5.72;4.78;;;20.20;99.90;;;;;;5073315;28;20180;-61
2023/06/19 02:41:34;;;;;;;7.70;5.68;;;20.30;99.90;;;;;;5073317;28;20186;-61
2023/06/19 02:44:00;;;;;;;6.22;5.50;;;20.30;99.90;;;;;;5074262;28;20178;-61
2023/06/19 02:46:26;;;;;;;5.38;4.88;;;20.20;99.90;;;;;;5077348;28;20189;-61
2023/06/19 02:48:51;;;;;;;5.38;4.88;;;20.20;99.90;;;;;;5077401;28;20222;-61
2023/06/19 02:51:17;;;;;;;6.10;5.50;;;20.20;99.90;;;;;;5077024;28;20218;-61
2023/06/19 02:53:47;;;;;;;7.05;5.80;;;20.20;99.90;;;;;;5077225;28;20217;-61
2023/06/19 02:56:13;;;;;;;5.35;4.90;;;20.40;99.90;;;;;;5077384;28;20194;-61
2023/06/19 02:58:38;;;;;;;5.45;4.65;;;20.30;99.90;;;;;;5077531;28;20174;-61
2023/06/19 03:01:06;;;;;;;4.45;4.13;;;20.20;99.90;;;;;;5077199;28;20178;-61
2023/06/19 03:03:37;;;;;;;4.25;3.85;;;20.00;99.90;;;;;;5077009;28;20629;-61
2023/06/19 03:06:06;;;;;;;4.28;3.35;;;20.10;99.90;;;;;;5076861;28;20182;-61
2023/06/19 03:08:37;;;;;;;3.72;2.97;;;20.00;99.90;;;;;;5077056;28;20258;-62
2023/06/19 03:11:05;;;;;;;3.20;2.92;;;20.20;99.90;;;;;;5077002;28;20166;-60
2023/06/19 03:13:50;;;;;;;3.85;3.38;;;20.20;99.90;;;;;;5076781;28;20237;-61
2023/06/19 03:16:16;;;;;;;3.63;3.30;;;20.20;99.90;;;;;;5076809;28;20501;-61
2023/06/19 03:18:44;;;;;;;3.78;3.33;;;20.10;99.90;;;;;;5076622;28;20224;-61
2023/06/19 03:21:14;;;;;;;3.63;3.25;;;20.20;99.90;;;;;;5076660;28;20720;-61
2023/06/19 03:23:42;;;;;;;3.67;3.40;;;20.20;99.90;;;;;;5076739;28;20178;-60
2023/06/19 03:26:10;;;;;;;4.38;4.00;;;20.20;99.90;;;;;;5076600;28;20177;-62
2023/06/19 03:28:35;;;;;;;3.42;3.15;;;20.10;99.90;;;;;;5076373;28;20174;-61
2023/06/19 03:31:01;;;;;;;4.93;3.40;;;20.10;99.90;;;;;;5076255;28;20224;-61
2023/06/19 03:33:27;;;;;;;5.05;3.80;;;20.10;99.90;;;;;;5076618;28;20280;-61
2023/06/19 03:35:53;;;;;;;4.78;3.97;;;20.10;99.90;;;;;;5076465;28;20623;-60
2023/06/19 03:38:18;;;;;;;7.90;6.13;;;20.00;99.90;;;;;;5076310;28;20177;-60
2023/06/19 03:40:44;;;;;;;7.95;7.05;;;20.00;99.90;;;;;;5076274;28;20179;-61
2023/06/19 03:43:10;;;;;;;9.05;7.25;;;20.00;99.90;;;;;;5076299;28;20174;-61
2023/06/19 03:45:36;;;;;;;7.88;7.28;;;19.90;99.90;;;;;;5076166;28;20632;-61
2023/06/19 03:48:02;;;;;;;8.55;7.55;;;20.00;99.90;;;;;;5076033;28;20190;-60
2023/06/19 03:50:28;;;;;;;8.32;7.63;;;19.90;99.90;;;;;;5076230;28;20170;-60
2023/06/19 03:52:53;;;;;;;8.10;7.40;;;19.80;99.90;;;;;;5076232;28;20241;-61
2023/06/19 03:55:19;;;;;;;7.40;6.80;;;19.80;99.90;;;;;;5075706;28;20182;-60
2023/06/19 03:57:45;;;;;;;6.97;6.30;;;19.60;99.90;;;;;;5075913;28;20220;-61
2023/06/19 04:00:12;;;;;;;6.65;6.15;;;19.70;99.90;;;;;;5074711;28;20183;-61
2023/06/19 04:02:39;;;;;;;7.00;6.40;;;19.70;99.90;;;;;;5076018;28;20650;-60
2023/06/19 04:05:06;;;;;;;6.35;5.75;;;19.60;99.90;;;;;;5075785;28;20520;-61
2023/06/19 04:07:31;;;;;;;7.05;5.97;;;19.60;99.90;;;;;;5075913;28;20163;-61
2023/06/19 04:09:58;;;;;;;6.47;5.90;;;19.50;99.90;;;;;;5075728;28;20204;-60
2023/06/19 04:12:23;;;;;;;7.68;6.03;;;19.50;99.90;;;;;;5075634;28;20214;-61
2023/06/19 04:14:49;;;;;;;6.50;5.90;;;19.40;99.90;;;;;;5075768;28;20539;-60
2023/06/19 04:17:15;;;;;;;6.32;5.82;;;19.40;99.90;;;;;;5075987;28;20257;-60
2023/06/19 04:19:41;;;;;;;7.90;6.30;;;19.30;99.90;;;;;;5075608;28;20182;-61
2023/06/19 04:22:07;;;;;;;7.85;6.53;;;19.40;99.90;;;;;;5075635;28;20651;-60
2023/06/19 04:24:33;;;;;;;7.65;6.25;;;19.30;99.90;;;;;;5074920;28;20265;-61
2023/06/19 04:26:58;;;;;;;7.97;7.18;;;19.40;99.90;;;;;;5075430;28;20288;-61
2023/06/19 04:29:24;;;;;;;7.60;6.97;;;19.30;99.90;;;;;;5073561;28;20182;-61
2023/06/19 04:31:50;;;;;;;8.00;6.97;;;19.20;99.90;;;;;;5073563;28;20627;-60
2023/06/19 04:34:20;;;;;;;7.70;6.93;;;19.00;99.90;;;;;;5075073;28;20199;-60
2023/06/19 04:36:47;;;;;;;8.25;7.40;;;19.20;99.90;;;;;;5075288;28;20186;-60
2023/06/19 04:39:12;;;;;;;8.02;7.32;;;19.20;99.90;;;;;;5075245;28;20189;-60
2023/06/19 04:41:38;;;;;;;8.98;7.10;;;19.30;99.90;;;;;;5075110;28;20171;-61
2023/06/19 04:44:08;;;;;;;8.40;7.25;;;19.30;99.90;;;;;;5074887;28;20193;-61
2023/06/19 04:46:34;;;;;;;9.23;7.72;;;19.30;99.90;;;;;;5074182;28;20559;-61
2023/06/19 04:48:59;;;;;;;8.23;7.43;;;19.30;99.90;;;;;;5073422;28;20229;-60
2023/06/19 04:51:26;;;;;;;9.25;8.25;;;19.30;99.90;;;;;;5074987;28;20183;-60
2023/06/19 04:53:51;;;;;;;9.18;8.30;;;19.30;99.90;;;;;;5074837;28;20198;-60
2023/06/19 04:56:17;;;;;;;9.02;8.15;;;19.30;99.90;;;;;;5074780;28;20178;-61
2023/06/19 04:58:47;;;;;;;9.43;8.45;;;19.40;99.90;;;;;;5074387;28;20178;-60
2023/06/19 05:01:16;;;;;;;10.85;8.63;;;19.30;99.90;;;;;;5074728;28;20555;-62
2023/06/19 05:03:44;;;;;;;10.10;9.18;;;19.30;99.90;;;;;;5074288;28;20190;-62
2023/06/19 05:06:09;;;;;;;11.05;9.90;;;19.30;99.90;;;;;;5074049;28;20178;-62
2023/06/19 05:08:35;;;;;;;14.15;10.07;;;19.30;99.90;;;;;;5074377;28;20179;-61
2023/06/19 05:11:01;;;;;;;11.77;9.55;;;19.30;99.90;;;;;;5073333;28;20182;-61
2023/06/19 05:13:26;;;;;;;10.85;9.65;;;19.20;99.90;;;;;;5074589;28;20210;-62
2023/06/19 05:15:52;;;;;;;11.50;10.00;;;19.20;99.90;;;;;;5074625;28;20175;-61
2023/06/19 05:18:18;;;;;;;10.45;9.45;;;19.10;99.90;;;;;;5074457;28;20574;-62
2023/06/19 05:20:44;;;;;;;11.15;10.07;;;19.20;99.90;;;;;;5074460;28;20182;-62
2023/06/19 05:23:10;;;;;;;11.25;10.10;;;19.20;99.90;;;;;;5074349;28;20179;-61
2023/06/19 05:25:36;;;;;;;11.30;10.23;;;19.20;99.90;;;;;;5074202;28;20610;-61
2023/06/19 05:28:01;;;;;;;12.43;11.13;;;19.20;99.90;;;;;;5074224;28;20231;-62
2023/06/19 05:30:27;;;;;;;12.73;11.52;;;19.20;99.90;;;;;;5074210;28;20167;-61
2023/06/19 05:32:53;;;;;;;26.45;13.20;;;19.30;99.90;;;;;;5074196;28;20198;-62
2023/06/19 05:35:18;;;;;;;13.82;12.43;;;19.30;99.90;;;;;;5074087;28;20171;-62
2023/06/19 05:37:45;;;;;;;15.35;13.82;;;19.40;99.90;;;;;;5074078;28;20183;-61
2023/06/19 05:40:11;;;;;;;16.20;14.63;;;19.30;99.90;;;;;;5073821;28;20624;-61
2023/06/19 05:42:36;;;;;;;17.35;14.68;;;19.40;99.90;;;;;;5074287;28;20182;-61
2023/06/19 05:45:03;;;;;;;16.02;14.52;;;19.50;99.90;;;;;;5074000;28;20178;-61
2023/06/19 05:47:30;;;;;;;19.42;16.25;;;19.60;99.90;;;;;;5073949;28;20524;-61
2023/06/19 05:49:57;;;;;;;18.70;16.80;;;19.70;99.90;;;;;;5073896;28;20222;-61
2023/06/19 05:52:22;;;;;;;19.58;17.67;;;19.60;99.90;;;;;;5073694;28;20193;-61
2023/06/19 05:54:49;;;;;;;17.98;16.27;;;19.70;99.90;;;;;;5073628;28;20248;-61
2023/06/19 05:57:16;;;;;;;18.48;16.73;;;19.70;99.90;;;;;;5073829;28;20183;-61
2023/06/19 05:59:42;;;;;;;18.73;16.95;;;19.60;99.90;;;;;;5073647;28;20170;-62
2023/06/19 06:02:07;;;;;;;19.55;17.65;;;19.60;99.90;;;;;;5073789;28;20182;-61
2023/06/19 06:04:34;;;;;;;19.42;17.40;;;19.40;99.90;;;;;;5074002;28;20175;-62
2023/06/19 06:07:00;;;;;;;19.02;17.13;;;19.40;99.90;;;;;;5073528;28;20175;-61
2023/06/19 06:09:27;;;;;;;18.17;16.40;;;19.50;99.90;;;;;;5073440;28;20582;-62
2023/06/19 06:11:52;;;;;;;16.23;14.70;;;19.30;99.90;;;;;;5073412;28;20607;-62
2023/06/19 06:14:18;;;;;;;17.63;14.27;;;19.40;99.90;;;;;;5073685;28;20245;-61
2023/06/19 06:16:44;;;;;;;16.85;15.05;;;19.50;99.90;;;;;;5073533;28;20191;-62
2023/06/19 06:19:10;;;;;;;15.57;13.90;;;19.60;99.90;;;;;;5073245;28;20257;-61
2023/06/19 06:21:36;;;;;;;15.63;14.02;;;19.60;99.90;;;;;;5073686;28;20175;-61
2023/06/19 06:24:02;;;;;;;14.75;12.43;;;19.60;99.90;;;;;;5073287;28;20201;-61
2023/06/19 06:26:27;;;;;;;14.13;12.63;;;19.80;99.90;;;;;;5073614;28;20209;-61
2023/06/19 06:28:54;;;;;;;13.52;12.13;;;19.80;99.90;;;;;;5073370;28;20263;-61
2023/06/19 06:31:19;;;;;;;11.95;10.63;;;19.80;99.90;;;;;;5073533;28;20167;-61
2023/06/19 06:33:45;;;;;;;13.02;11.48;;;19.90;99.90;;;;;;5073279;28;20667;-62
2023/06/19 06:36:10;;;;;;;12.45;11.20;;;20.00;99.90;;;;;;5073303;28;20175;-62
2023/06/19 06:38:36;;;;;;;11.63;10.52;;;20.20;99.90;;;;;;5073105;28;20196;-61
2023/06/19 06:41:02;;;;;;;11.82;10.68;;;20.20;99.90;;;;;;5073241;28;20202;-62
2023/06/19 06:43:28;;;;;;;16.73;11.98;;;20.30;99.90;;;;;;5073499;28;20175;-61
2023/06/19 06:45:53;;;;;;;14.63;12.80;;;20.40;99.90;;;;;;5073538;28;20171;-61
2023/06/19 06:48:20;;;;;;;13.00;11.73;;;20.30;99.90;;;;;;5073120;28;20245;-61
2023/06/19 06:50:46;;;;;;;13.30;12.07;;;20.20;99.90;;;;;;5073047;28;20269;-61
2023/06/19 06:53:12;;;;;;;13.23;11.98;;;20.40;99.90;;;;;;5072916;28;20286;-61
2023/06/19 06:55:37;;;;;;;14.32;12.85;;;20.40;99.90;;;;;;5073232;28;20563;-61
2023/06/19 06:58:03;;;;;;;13.82;12.43;;;20.30;99.90;;;;;;5073152;28;20261;-61
2023/06/19 07:00:29;;;;;;;14.13;12.75;;;20.30;99.90;;;;;;5073334;28;20206;-62
2023/06/19 07:02:54;;;;;;;13.98;12.40;;;20.20;99.90;;;;;;5073134;28;20774;-61
2023/06/19 07:05:20;;;;;;;13.50;12.10;;;20.20;99.90;;;;;;5072994;28;20182;-61
2023/06/19 07:07:46;;;;;;;14.63;12.15;;;20.10;99.90;;;;;;5072784;28;20661;-61
2023/06/19 07:10:12;;;;;;;13.85;12.23;;;20.20;99.90;;;;;;5073089;28;20186;-61
2023/06/19 07:12:58;;;;;;;12.25;11.15;;;20.20;99.90;;;;;;5072879;28;20191;-61
2023/06/19 07:15:23;;;;;;;12.18;10.88;;;20.20;99.90;;;;;;5072710;28;20202;-61
2023/06/19 07:17:49;;;;;;;12.73;11.25;;;20.30;99.90;;;;;;5072824;28;20171;-61
2023/06/19 07:20:15;;;;;;;12.93;11.73;;;20.30;99.90;;;;;;5071512;28;20177;-61
2023/06/19 07:22:42;;;;;;;13.02;11.73;;;20.30;99.90;;;;;;5072943;28;20181;-61
2023/06/19 07:25:09;;;;;;;13.95;11.65;;;20.50;99.90;;;;;;5072887;28;20167;-61
2023/06/19 07:27:35;;;;;;;13.40;10.85;;;20.50;99.90;;;;;;5072713;28;20175;-61
2023/06/19 07:30:01;;;;;;;12.38;11.18;;;20.50;99.90;;;;;;5073666;28;20175;-61
2023/06/19 07:32:27;;;;;;;13.85;10.43;;;20.60;99.90;;;;;;5076526;28;20232;-61
2023/06/19 07:34:53;;;;;;;14.02;10.23;;;20.80;99.90;;;;;;5076320;28;20605;-61
2023/06/19 07:37:19;;;;;;;12.57;11.00;;;20.70;99.90;;;;;;5076606;28;20531;-61
2023/06/19 07:39:49;;;;;;;14.27;11.30;;;20.90;99.90;;;;;;5076422;28;20265;-62
2023/06/19 07:42:15;;;;;;;12.18;9.88;;;20.80;99.90;;;;;;5076209;28;20266;-61
2023/06/19 07:44:41;;;;;;;15.30;10.55;;;20.90;99.90;;;;;;5076254;28;20170;-62
2023/06/19 07:47:08;;;;;;;11.93;10.55;;;20.80;99.90;;;;;;5076065;28;20531;-62
2023/06/19 07:49:34;;;;;;;12.23;10.30;;;21.10;99.90;;;;;;5076155;28;20676;-61
2023/06/19 07:52:00;;;;;;;12.80;10.55;;;21.10;99.90;;;;;;5076430;28;20519;-61
2023/06/19 07:54:26;;;;;;;11.90;10.60;;;21.20;99.90;;;;;;5076080;28;20258;-61
2023/06/19 07:56:51;;;;;;;15.20;11.18;;;21.40;99.90;;;;;;5075987;28;20528;-61
2023/06/19 07:59:17;;;;;;;11.68;9.68;;;21.50;99.90;;;;;;5076004;28;20193;-61
2023/06/19 08:01:43;;;;;;;12.50;10.05;;;21.50;99.90;;;;;;5075812;28;20260;-62
2023/06/19 08:04:09;;;;;;;10.85;9.73;;;21.50;99.90;;;;;;5075762;28;20738;-61
2023/06/19 08:06:35;;;;;;;12.70;11.30;;;21.50;99.90;;;;;;5076014;28;20253;-62
2023/06/19 08:09:02;;;;;;;12.13;9.93;;;21.10;99.90;;;;;;5075891;28;20179;-61
2023/06/19 08:11:27;;;;;;;12.82;10.90;;;21.10;99.90;;;;;;5075445;28;20187;-62
2023/06/19 08:13:53;;;;;;;11.75;10.55;;;21.00;99.90;;;;;;5075089;28;20214;-62
2023/06/19 08:16:19;;;;;;;10.85;9.63;;;21.00;99.90;;;;;;5075033;28;20182;-61
2023/06/19 08:18:45;;;;;;;11.00;9.27;;;21.00;99.90;;;;;;5075005;28;20757;-61
2023/06/19 08:21:11;;;;;;;11.80;9.35;;;21.10;99.90;;;;;;5075230;28;20206;-61
2023/06/19 08:23:39;;;;;;;10.40;9.45;;;21.10;99.90;;;;;;5075115;28;20307;-62
2023/06/19 08:26:05;;;;;;;10.10;9.02;;;21.20;99.90;;;;;;5074963;28;20186;-62
2023/06/19 08:28:34;;;;;;;11.13;8.98;;;21.30;99.90;;;;;;5074958;28;20198;-61
2023/06/19 08:30:59;;;;;;;9.68;8.65;;;21.50;99.90;;;;;;5074871;28;20167;-62
2023/06/19 08:33:25;;;;;;;8.98;8.10;;;21.50;99.90;;;;;;5074848;28;20670;-62
2023/06/19 08:35:51;;;;;;;11.65;9.57;;;21.80;99.90;;;;;;5074951;28;20220;-62
2023/06/19 08:38:16;;;;;;;12.15;9.18;;;22.00;99.90;;;;;;5074832;28;20186;-62
2023/06/19 08:40:43;;;;;;;9.55;8.55;;;22.00;99.90;;;;;;5074353;28;20659;-62
2023/06/19 08:43:09;;;;;;;11.27;10.25;;;22.10;99.90;;;;;;5073747;28;20178;-62
2023/06/19 08:45:35;;;;;;;10.60;9.40;;;22.20;99.90;;;;;;5074551;28;20624;-62
2023/06/19 08:48:04;;;;;;;12.15;9.80;;;22.20;99.90;;;;;;5074160;28;20582;-61
2023/06/19 08:50:33;;;;;;;11.55;8.52;;;22.30;99.90;;;;;;5074632;28;20174;-62
2023/06/19 08:52:59;;;;;;;10.45;9.00;;;22.60;99.90;;;;;;5074590;28;20206;-62
2023/06/19 08:55:25;;;;;;;10.85;8.85;;;22.80;99.90;;;;;;5074352;28;20635;-62
2023/06/19 08:57:52;;;;;;;9.27;8.38;;;23.10;99.90;;;;;;5074239;28;20221;-62
2023/06/19 09:00:25;;;;;;;9.43;8.52;;;23.10;99.90;;;;;;5074160;28;20287;-62
2023/06/19 09:02:52;;;;;;;8.95;8.07;;;23.30;99.90;;;;;;5074399;28;20228;-62
2023/06/19 09:05:19;;;;;;;10.43;8.68;;;23.40;99.90;;;;;;5074286;28;20563;-62
2023/06/19 09:08:00;;;;;;;9.98;8.90;;;23.40;99.90;;;;;;5074245;28;20299;-62
2023/06/19 09:10:26;;;;;;;10.82;8.85;;;23.40;99.90;;;;;;5074067;28;20174;-62
2023/06/19 09:13:03;;;;;;;10.55;8.18;;;23.20;99.90;;;;;;5073809;28;20263;-62
2023/06/19 09:15:31;;;;;;;8.95;8.05;;;23.20;99.90;;;;;;5074083;28;20235;-62
2023/06/19 09:18:08;;;;;;;9.48;7.82;;;23.00;99.90;;;;;;5074054;28;20258;-62
2023/06/19 09:20:38;;;;;;;11.00;8.77;;;23.20;99.90;;;;;;5073904;28;20622;-62
2023/06/19 09:23:04;;;;;;;7.75;6.95;;;23.40;99.90;;;;;;5073943;28;20182;-61
2023/06/19 09:25:30;;;;;;;10.00;8.60;;;23.50;99.90;;;;;;5073603;28;20197;-62
2023/06/19 09:27:57;;;;;;;9.30;7.63;;;23.80;99.90;;;;;;5073501;28;20178;-62
2023/06/19 09:30:23;;;;;;;9.35;7.43;;;24.10;99.90;;;;;;5073656;28;20171;-62
2023/06/19 09:32:49;;;;;;;9.32;7.35;;;24.30;99.90;;;;;;5073493;28;20210;-62
2023/06/19 09:35:15;;;;;;;9.13;8.23;;;24.60;99.90;;;;;;5073432;28;20624;-62
2023/06/19 09:37:41;;;;;;;8.82;6.75;;;24.40;99.90;;;;;;5073575;28;20178;-62
2023/06/19 09:40:10;;;;;;;9.30;6.93;;;24.50;99.90;;;;;;5073384;28;20175;-62
2023/06/19 09:42:44;;;;;;;8.55;6.93;;;24.70;99.90;;;;;;5073534;28;20175;-62
2023/06/19 09:45:12;;;;;;;9.52;6.97;;;24.80;99.90;;;;;;5073490;28;20185;-62
2023/06/19 09:47:47;;;;;;;9.10;7.97;;;24.80;99.50;;;;;;5073285;28;20185;-62
2023/06/19 09:50:19;;;;;;;8.32;6.68;;;24.60;99.30;;;;;;5073216;28;20226;-62
2023/06/19 09:52:45;;;;;;;7.78;6.40;;;24.50;99.90;;;;;;5072621;28;20198;-62
2023/06/19 09:55:13;;;;;;;9.07;6.75;;;24.60;99.90;;;;;;5073140;28;20175;-62
2023/06/19 09:57:39;;;;;;;9.55;7.45;;;24.70;99.90;;;;;;5073150;28;20236;-62
2023/06/19 10:00:15;;;;;;;9.10;6.95;;;24.70;99.40;;;;;;5073232;28;20261;-62
2023/06/19 10:02:46;;;;;;;10.02;7.18;;;24.90;99.50;;;;;;5073099;28;20178;-63
2023/06/19 10:05:13;;;;;;;10.50;7.07;;;24.90;99.80;;;;;;5073007;28;20216;-62
2023/06/19 10:07:42;;;;;;;10.20;9.20;;;25.00;99.90;;;;;;5073117;28;20175;-62
2023/06/19 10:10:22;;;;;;;10.55;7.85;;;24.90;98.40;;;;;;5073197;28;20163;-62
2023/06/19 10:12:48;;;;;;;9.07;7.30;;;24.50;99.10;;;;;;5072977;28;20248;-62
2023/06/19 10:15:19;;;;;;;8.27;7.20;;;24.10;99.90;;;;;;5072858;28;20540;-62
2023/06/19 10:17:59;;;;;;;10.38;7.35;;;24.30;99.90;;;;;;5072762;28;20170;-62
2023/06/19 10:20:33;;;;;;;7.95;6.95;;;24.50;99.60;;;;;;5073005;28;20194;-62
2023/06/19 10:23:10;;;;;;;8.38;7.22;;;24.90;99.90;;;;;;5073016;28;20202;-62
2023/06/19 10:25:38;;;;;;;6.80;6.20;;;25.10;98.70;;;;;;5072875;28;20526;-62
2023/06/19 10:28:07;;;;;;;8.10;6.15;;;25.40;99.20;;;;;;5072684;28;20206;-62
2023/06/19 10:30:34;;;;;;;8.82;6.63;;;25.70;98.70;;;;;;5072964;28;20224;-62
2023/06/19 10:33:02;;;;;;;7.82;5.70;;;25.60;98.00;;;;;;5071642;28;20210;-62
2023/06/19 10:35:28;;;;;;;9.25;6.25;;;25.90;98.60;;;;;;5072757;28;20270;-62
2023/06/19 10:37:54;;;;;;;6.65;5.97;;;26.20;98.30;;;;;;5072745;28;20308;-62
2023/06/19 10:40:20;;;;;;;8.00;7.10;;;26.60;97.90;;;;;;5072665;28;20182;-62
2023/06/19 10:42:46;;;;;;;8.80;6.30;;;26.50;96.40;;;;;;5072525;28;20175;-62
2023/06/19 10:45:15;;;;;;;8.20;5.57;;;26.60;96.80;;;;;;5072791;28;20527;-62
2023/06/19 10:47:44;;;;;;;7.07;6.30;;;26.60;96.90;;;;;;5072577;28;20651;-62
2023/06/19 10:50:14;;;;;;;8.75;5.80;;;26.20;96.10;;;;;;5072456;28;20226;-62
2023/06/19 10:52:44;;;;;;;6.60;5.80;;;26.20;96.80;;;;;;5072503;28;20203;-62
2023/06/19 10:55:11;;;;;;;8.60;6.20;;;26.20;96.70;;;;;;5072411;28;20189;-62
2023/06/19 10:57:36;;;;;;;7.38;6.35;;;25.60;97.20;;;;;;5072693;28;20175;-62
2023/06/19 11:00:11;;;;;;;8.35;6.00;;;25.30;97.20;;;;;;5072581;28;20169;-62
2023/06/19 11:02:39;;;;;;;7.93;6.28;;;25.30;97.60;;;;;;5072537;28;20178;-62
2023/06/19 11:05:05;;;;;;;7.78;6.20;;;25.30;97.80;;;;;;5073380;28;20636;-62
2023/06/19 11:07:32;;;;;;;7.10;5.60;;;25.10;97.70;;;;;;5074925;28;20546;-62
2023/06/19 11:09:58;;;;;;;6.00;5.40;;;25.10;98.30;;;;;;5076231;28;20241;-62
2023/06/19 11:12:24;;;;;;;8.25;5.93;;;25.00;98.50;;;;;;5076426;28;20175;-62
2023/06/19 11:14:49;;;;;;;8.68;5.85;;;25.00;98.50;;;;;;5076382;28;20611;-62
2023/06/19 11:17:21;;;;;;;7.75;5.85;;;25.10;97.80;;;;;;5076248;28;20182;-63
2023/06/19 11:19:47;;;;;;;8.73;5.60;;;25.30;97.50;;;;;;5076192;28;20175;-62
2023/06/19 11:22:13;;;;;;;7.68;5.53;;;25.50;97.70;;;;;;5076050;28;20174;-62
2023/06/19 11:24:48;;;;;;;6.80;5.28;;;25.80;96.60;;;;;;5075930;28;20616;-62
2023/06/19 11:27:31;;;;;;;5.10;4.07;;;25.70;96.00;;;;;;5075901;28;20196;-62
2023/06/19 11:30:04;;;;;;;7.13;4.72;;;25.60;96.10;;;;;;5076028;28;20175;-62
2023/06/19 11:32:40;;;;;;;6.82;4.40;;;25.30;96.50;;;;;;5075806;28;20182;-62
2023/06/19 11:35:07;;;;;;;5.72;5.13;;;25.60;96.80;;;;;;5075856;28;20182;-62
2023/06/19 11:37:34;;;;;;;8.75;5.30;;;25.70;95.80;;;;;;5076133;28;20175;-63
2023/06/19 11:40:00;;;;;;;7.25;5.35;;;25.90;96.10;;;;;;5075826;28;20171;-62
2023/06/19 11:42:28;;;;;;;6.43;5.75;;;26.40;95.60;;;;;;5075566;28;20635;-62
2023/06/19 11:45:03;;;;;;;7.75;4.68;;;26.80;95.30;;;;;;5075664;28;20636;-63
2023/06/19 11:47:33;;;;;;;5.60;5.00;;;26.80;95.40;;;;;;5075576;28;20178;-63
2023/06/19 11:50:00;;;;;;;7.13;5.00;;;26.80;94.90;;;;;;5075734;28;20291;-63
2023/06/19 11:52:26;;;;;;;6.18;5.18;;;27.10;95.10;;;;;;5075445;28;20559;-62
2023/06/19 11:54:51;;;;;;;7.55;5.80;;;27.20;95.00;;;;;;5075588;28;20166;-63
2023/06/19 11:57:17;;;;;;;7.63;5.78;;;27.30;94.20;;;;;;5075444;28;20181;-63
2023/06/19 11:59:43;;;;;;;6.43;5.40;;;27.10;94.40;;;;;;5075333;28;20174;-63
2023/06/19 12:02:09;;;;;;;9.75;5.57;;;27.30;94.50;;;;;;5075229;28;20175;-62
2023/06/19 12:04:35;;;;;;;6.00;5.10;;;27.20;94.20;;;;;;5075513;28;20209;-62
2023/06/19 12:07:01;;;;;;;7.28;5.18;;;26.80;94.10;;;;;;5075455;28;20170;-63
2023/06/19 12:09:27;;;;;;;6.30;5.30;;;26.80;95.00;;;;;;5075291;28;20167;-63
2023/06/19 12:11:57;;;;;;;5.60;5.03;;;27.10;93.70;;;;;;5075380;28;20179;-63
2023/06/19 12:14:24;;;;;;;6.70;5.35;;;27.30;93.90;;;;;;5075471;28;20675;-63
2023/06/19 12:16:52;;;;;;;5.68;4.95;;;27.30;93.20;;;;;;5075486;28;20190;-62
2023/06/19 12:19:18;;;;;;;7.60;5.85;;;27.40;93.90;;;;;;5075874;28;20528;-63
2023/06/19 12:21:44;;;;;;;8.95;5.63;;;27.20;92.70;;;;;;5076087;28;20167;-63
2023/06/19 12:24:10;;;;;;;8.05;5.82;;;27.10;92.80;;;;;;5075882;28;20649;-63
2023/06/19 12:26:39;;;;;;;7.70;6.63;;;27.00;93.70;;;;;;5075680;28;20179;-63
2023/06/19 12:29:06;;;;;;;7.50;6.13;;;26.60;93.60;;;;;;5075405;28;20178;-63
2023/06/19 12:31:33;;;;;;;7.60;5.93;;;26.50;94.20;;;;;;5075574;28;20174;-62
2023/06/19 12:34:01;;;;;;;7.43;6.00;;;26.50;94.60;;;;;;5075354;28;20264;-63
2023/06/19 12:36:27;;;;;;;7.18;6.03;;;26.60;94.40;;;;;;5075413;28;20219;-62
2023/06/19 12:38:56;;;;;;;6.18;5.55;;;26.80;94.10;;;;;;5075311;28;20193;-63
2023/06/19 12:41:22;;;;;;;6.47;5.68;;;27.20;94.40;;;;;;5075405;28;20171;-63